Time;durP1;ratioP1;P1;durP2;ratioP2;P2;SDS_P1;SDS_P2;PMS_P1;PMS_P2;Temp;Humidity;BMP_temperature;BMP_pressure;BME280_temperature;BME280_humidity;BME280_pressure;Samples;Min_cycle;Max_cycle;Signal;HPM_P1;HPM_P2
2023/02/15 00:01:08;;;;;;;17.83;10.95;;;6.90;99.90;;;;;;4862069;29;20034;-81
2023/02/15 00:07:32;;;;;;;16.25;10.52;;;6.90;99.90;;;;;;4866675;29;20047;-81
2023/02/15 00:36:21;;;;;;;;;;;;;;;;;;;;;
2023/02/15 00:38:49;;;;;;;9.80;7.05;;;6.90;99.90;;;;;;4779549;30;20139;-81
2023/02/15 00:41:15;;;;;;;12.30;7.75;;;6.90;99.90;;;;;;4799716;29;20045;-81
2023/02/15 00:47:34;;;;;;;12.50;7.55;;;6.90;99.90;;;;;;4901071;29;20120;-82
2023/02/15 00:54:23;;;;;;;;;;;;;;;;;;;;;
2023/02/15 01:04:43;;;;;;;;;;;;;;;;;;;;;
2023/02/15 01:11:10;;;;;;;11.02;7.10;;;6.80;99.90;;;;;;4871911;29;20121;-81
2023/02/15 01:39:46;;;;;;;;;;;;;;;;;;;;;
2023/02/15 02:21:31;;;;;;;10.68;7.00;;;6.70;99.90;;;;;;5814569;23;20016;-81
2023/02/15 02:24:19;;;;;;;11.52;7.03;;;6.70;99.90;;;;;;4900908;29;20041;-80
2023/02/15 02:30:10;;;;;;;9.43;6.55;;;6.70;99.90;;;;;;4899071;29;20035;-80
2023/02/15 02:33:06;;;;;;;10.90;6.95;;;6.70;99.90;;;;;;4886495;29;20043;-81
2023/02/15 02:35:57;;;;;;;11.05;7.13;;;6.70;99.90;;;;;;4886303;29;20028;-80
2023/02/15 02:38:52;;;;;;;9.77;6.43;;;6.70;99.90;;;;;;4900041;29;20390;-80
2023/02/15 02:41:32;;;;;;;10.43;6.97;;;6.70;99.90;;;;;;4903472;29;20024;-79
2023/02/15 02:44:09;;;;;;;10.32;6.78;;;6.70;99.90;;;;;;4886626;29;20080;-81
2023/02/15 02:47:04;;;;;;;11.93;7.60;;;6.60;99.90;;;;;;4886323;29;20032;-80
2023/02/15 02:49:42;;;;;;;10.88;6.63;;;6.60;99.90;;;;;;4886722;29;20141;-79
2023/02/15 03:34:35;;;;;;;12.93;6.85;;;6.60;99.90;;;;;;5150693;23;20083;-80
2023/02/15 03:48:18;;;;;;;9.35;5.97;;;6.70;99.90;;;;;;4745702;29;20040;-78
2023/02/15 05:35:27;;;;;;;8.80;5.50;;;6.40;99.90;;;;;;5323681;23;20053;-80
2023/02/15 05:37:53;;;;;;;9.07;5.78;;;6.40;99.90;;;;;;4887270;29;20123;-79
2023/02/15 05:40:19;;;;;;;8.25;5.28;;;6.40;99.90;;;;;;4903982;29;20123;-80
2023/02/15 05:42:47;;;;;;;8.70;5.65;;;6.40;99.90;;;;;;4887703;29;20569;-79
2023/02/15 05:45:12;;;;;;;8.88;5.75;;;6.40;99.90;;;;;;4887421;29;20068;-79
2023/02/15 05:47:38;;;;;;;10.60;6.68;;;6.40;99.90;;;;;;4886720;29;20032;-79
2023/02/15 06:17:30;;;;;;;7.50;5.07;;;6.30;99.90;;;;;;5526086;23;20143;-79
2023/02/15 06:19:56;;;;;;;9.20;6.45;;;6.30;99.90;;;;;;4903648;29;20028;-79
2023/02/15 06:22:22;;;;;;;10.35;5.75;;;6.20;99.90;;;;;;4887216;29;20059;-80
2023/02/15 06:24:48;;;;;;;10.40;6.43;;;6.20;99.90;;;;;;4886358;29;20029;-79
2023/02/15 06:27:14;;;;;;;11.52;6.85;;;6.20;99.90;;;;;;4902360;29;20028;-79
2023/02/15 06:29:39;;;;;;;11.13;6.75;;;6.10;99.90;;;;;;4903071;29;20028;-79
2023/02/15 06:32:05;;;;;;;9.95;6.20;;;6.10;99.90;;;;;;4904717;29;20032;-79
2023/02/15 06:34:37;;;;;;;10.45;6.63;;;6.10;99.90;;;;;;4913130;29;20557;-81
2023/02/15 06:37:53;;;;;;;;;;;;;;;;;;;;;
2023/02/15 06:40:24;;;;;;;9.48;6.10;;;6.00;99.90;;;;;;4901057;29;20097;-80
2023/02/15 06:46:39;;;;;;;9.82;6.05;;;5.90;99.90;;;;;;4900041;29;20032;-81
2023/02/15 06:49:05;;;;;;;9.98;6.40;;;5.90;99.90;;;;;;4903010;29;20513;-79
2023/02/15 06:51:31;;;;;;;9.50;6.13;;;5.80;99.90;;;;;;4886182;29;20032;-80
2023/02/15 06:53:56;;;;;;;9.13;6.20;;;5.80;99.90;;;;;;4884679;29;20413;-80
2023/02/15 07:32:05;;;;;;;8.75;5.25;;;5.60;99.90;;;;;;4895912;29;20063;-83
2023/02/15 07:34:49;;;;;;;8.15;5.70;;;5.60;99.90;;;;;;4900907;29;20102;-88
2023/02/15 07:37:18;;;;;;;8.48;5.50;;;5.50;99.90;;;;;;4898069;29;20025;-83
2023/02/15 07:40:04;;;;;;;9.85;6.05;;;5.50;99.90;;;;;;4900192;29;20036;-82
2023/02/15 07:42:30;;;;;;;11.07;6.57;;;5.50;99.90;;;;;;4901609;29;20097;-76
2023/02/15 07:59:23;;;;;;;8.63;6.20;;;5.60;99.90;;;;;;4944768;23;20059;-80
2023/02/15 08:01:56;;;;;;;12.38;6.47;;;5.70;99.90;;;;;;4906652;29;20027;-81
2023/02/15 08:04:21;;;;;;;11.35;6.60;;;5.70;99.90;;;;;;4914051;29;20046;-81
2023/02/15 08:11:25;;;;;;;10.45;6.22;;;5.70;99.90;;;;;;4921911;29;20062;-80
2023/02/15 08:13:10;;;;;;;8.48;6.25;;;5.70;99.90;;;;;;4928510;29;20028;-68
2023/02/15 08:15:36;;;;;;;10.57;6.25;;;5.80;99.90;;;;;;4909623;29;20043;-67
2023/02/15 08:18:01;;;;;;;13.88;7.38;;;5.70;99.90;;;;;;4926543;29;20043;-67
2023/02/15 08:20:27;;;;;;;10.50;6.65;;;5.80;99.90;;;;;;4926829;29;20032;-66
2023/02/15 08:22:53;;;;;;;9.93;6.50;;;5.80;99.90;;;;;;4927202;29;20043;-68
2023/02/15 08:25:18;;;;;;;10.68;6.75;;;5.80;99.90;;;;;;4927162;29;20028;-67
2023/02/15 08:27:44;;;;;;;12.85;7.25;;;5.90;99.90;;;;;;4919219;29;20036;-71
2023/02/15 08:30:10;;;;;;;10.50;7.07;;;5.90;99.90;;;;;;4922536;29;20024;-72
2023/02/15 08:32:37;;;;;;;12.07;7.25;;;6.00;99.90;;;;;;4911431;29;20531;-72
2023/02/15 08:35:02;;;;;;;11.20;6.90;;;6.00;99.90;;;;;;4909385;29;20027;-71
2023/02/15 08:37:28;;;;;;;13.50;7.35;;;6.10;99.90;;;;;;4927511;29;20068;-70
2023/02/15 08:39:54;;;;;;;12.55;6.95;;;6.10;99.90;;;;;;4917465;29;20607;-70
2023/02/15 08:42:20;;;;;;;10.48;6.97;;;6.10;99.90;;;;;;4916357;29;20083;-70
2023/02/15 08:44:46;;;;;;;10.48;5.88;;;6.10;99.90;;;;;;4925447;29;20493;-70
2023/02/15 08:47:12;;;;;;;10.32;6.78;;;6.20;99.90;;;;;;4921697;29;20176;-69
2023/02/15 08:49:37;;;;;;;13.38;7.65;;;6.20;99.90;;;;;;4917778;29;20020;-69
2023/02/15 08:52:03;;;;;;;10.45;6.90;;;6.20;99.90;;;;;;4919909;29;20056;-72
2023/02/15 08:54:29;;;;;;;9.40;6.78;;;6.20;99.90;;;;;;4919159;29;20032;-71
2023/02/15 08:56:55;;;;;;;9.75;5.95;;;6.20;99.90;;;;;;4919430;29;20116;-71
2023/02/15 08:59:22;;;;;;;10.73;6.65;;;6.40;99.90;;;;;;4919464;29;20513;-72
2023/02/15 09:01:49;;;;;;;10.18;6.28;;;6.40;99.90;;;;;;4904107;29;20032;-71
2023/02/15 09:04:16;;;;;;;9.60;6.28;;;6.40;99.90;;;;;;4902056;29;20040;-71
2023/02/15 09:06:43;;;;;;;9.50;6.10;;;6.50;99.90;;;;;;4919106;29;20028;-72
2023/02/15 09:09:10;;;;;;;9.25;6.10;;;6.50;99.90;;;;;;4904878;29;20401;-72
2023/02/15 09:11:38;;;;;;;10.85;6.35;;;6.50;99.90;;;;;;4901756;29;20031;-70
2023/02/15 09:14:13;;;;;;;9.10;6.10;;;6.60;99.90;;;;;;4919385;29;20393;-70
2023/02/15 09:16:39;;;;;;;10.13;6.15;;;6.50;99.90;;;;;;4919777;29;20035;-70
2023/02/15 09:19:05;;;;;;;7.93;6.05;;;6.60;99.90;;;;;;4920368;29;20092;-70
2023/02/15 09:21:32;;;;;;;8.88;6.35;;;6.60;99.90;;;;;;4907244;29;20029;-70
2023/02/15 09:24:04;;;;;;;10.80;6.78;;;6.60;99.90;;;;;;4929261;29;20088;-70
2023/02/15 09:26:32;;;;;;;9.55;6.13;;;6.70;99.90;;;;;;4926290;29;20020;-70
2023/02/15 09:29:00;;;;;;;10.38;6.90;;;6.70;99.90;;;;;;4910831;29;20111;-71
2023/02/15 09:31:32;;;;;;;10.05;6.65;;;6.80;99.90;;;;;;4926333;29;20397;-70
2023/02/15 09:34:01;;;;;;;8.60;5.57;;;6.80;99.90;;;;;;4929411;29;20026;-70
2023/02/15 09:36:29;;;;;;;11.00;7.03;;;6.90;99.90;;;;;;4931172;29;20058;-70
2023/02/15 09:39:08;;;;;;;11.98;6.45;;;6.90;99.90;;;;;;4931411;29;20015;-70
2023/02/15 09:41:40;;;;;;;8.82;5.93;;;6.90;99.90;;;;;;4931526;29;20083;-69
2023/02/15 09:44:36;;;;;;;9.52;6.47;;;7.00;99.90;;;;;;4930671;29;20028;-69
2023/02/15 09:47:13;;;;;;;9.13;5.38;;;7.00;99.90;;;;;;4928207;29;20064;-69
2023/02/15 09:49:54;;;;;;;9.07;5.47;;;7.10;99.90;;;;;;4913389;29;20115;-68
2023/02/15 09:52:25;;;;;;;9.23;5.47;;;7.20;99.90;;;;;;4931680;29;20048;-69
2023/02/15 09:55:10;;;;;;;11.20;6.30;;;7.20;99.90;;;;;;4913473;29;20024;-69
2023/02/15 09:57:57;;;;;;;10.82;5.78;;;7.30;99.90;;;;;;4929295;29;20132;-68
2023/02/15 10:00:44;;;;;;;10.05;5.85;;;7.30;99.90;;;;;;4932348;29;20516;-68
2023/02/15 10:03:23;;;;;;;7.50;5.25;;;7.40;99.90;;;;;;4932588;29;20073;-71
2023/02/15 10:06:33;;;;;;;8.02;5.68;;;7.40;99.90;;;;;;4933531;29;20023;-71
2023/02/15 10:09:10;;;;;;;10.57;5.85;;;7.50;99.90;;;;;;4903027;29;20072;-71
2023/02/15 10:11:45;;;;;;;10.27;6.07;;;7.60;99.90;;;;;;4926608;29;20106;-70
2023/02/15 10:14:37;;;;;;;8.63;5.75;;;7.60;99.90;;;;;;4922963;29;20028;-70
2023/02/15 10:17:34;;;;;;;9.75;5.97;;;7.70;99.90;;;;;;4922802;29;20036;-70
2023/02/15 10:20:36;;;;;;;7.75;5.32;;;7.80;99.90;;;;;;4923023;29;20032;-70
2023/02/15 10:23:38;;;;;;;7.53;4.50;;;7.80;99.90;;;;;;4923203;29;20119;-70
2023/02/15 10:26:27;;;;;;;6.88;5.30;;;7.90;99.90;;;;;;4893845;29;20123;-70
2023/02/15 10:29:17;;;;;;;8.30;5.75;;;7.90;99.90;;;;;;4923355;29;20047;-70
2023/02/15 10:31:54;;;;;;;7.80;5.28;;;7.90;99.90;;;;;;4922683;29;20519;-69
2023/02/15 10:34:32;;;;;;;6.95;5.20;;;7.90;99.90;;;;;;4922871;29;20032;-69
2023/02/15 10:37:09;;;;;;;7.20;5.25;;;8.00;99.90;;;;;;4922848;29;20103;-69
2023/02/15 10:40:07;;;;;;;9.15;5.88;;;8.00;99.90;;;;;;4922620;29;20381;-70
2023/02/15 10:42:39;;;;;;;7.70;5.20;;;8.10;99.90;;;;;;4922499;29;20029;-71
2023/02/15 10:45:19;;;;;;;10.18;6.30;;;8.20;99.90;;;;;;4929371;29;20024;-69
2023/02/15 10:48:18;;;;;;;9.35;6.13;;;8.20;99.90;;;;;;4933310;29;20062;-69
2023/02/15 10:50:59;;;;;;;7.95;5.63;;;8.30;99.90;;;;;;4922423;29;20481;-69
2023/02/15 10:53:46;;;;;;;9.27;6.05;;;8.40;99.90;;;;;;4922443;29;20032;-69
2023/02/15 10:56:35;;;;;;;7.82;6.13;;;8.40;99.90;;;;;;4921948;29;20024;-69
2023/02/15 10:59:03;;;;;;;9.05;5.93;;;8.50;99.90;;;;;;4903474;29;20060;-71
2023/02/15 11:01:32;;;;;;;7.70;5.82;;;8.50;99.90;;;;;;4903696;29;20393;-71
2023/02/15 11:04:16;;;;;;;8.20;5.80;;;8.50;99.90;;;;;;4894991;29;20044;-71
2023/02/15 11:06:53;;;;;;;9.27;5.88;;;8.60;99.90;;;;;;4905070;29;20126;-71
2023/02/15 11:09:22;;;;;;;9.65;6.05;;;8.60;99.90;;;;;;4921278;29;20035;-70
2023/02/15 11:11:55;;;;;;;9.27;6.25;;;8.70;99.90;;;;;;4919524;29;20024;-70
2023/02/15 11:14:50;;;;;;;9.25;6.82;;;8.70;99.90;;;;;;4904881;29;20138;-72
2023/02/15 11:17:25;;;;;;;8.38;6.00;;;8.70;99.90;;;;;;4923816;29;20024;-72
2023/02/15 11:20:15;;;;;;;9.32;6.68;;;8.80;99.90;;;;;;4928262;29;20036;-70
2023/02/15 11:22:41;;;;;;;8.75;6.22;;;8.80;99.90;;;;;;4932232;29;20020;-69
2023/02/15 11:25:18;;;;;;;10.27;6.32;;;8.90;99.90;;;;;;4925848;29;20052;-71
2023/02/15 11:27:46;;;;;;;8.60;6.47;;;8.90;99.90;;;;;;4931610;29;20032;-70
2023/02/15 11:30:20;;;;;;;12.35;7.53;;;9.00;99.90;;;;;;4928625;29;20036;-70
2023/02/15 11:32:57;;;;;;;9.00;5.60;;;9.10;99.90;;;;;;4928779;29;20039;-70
2023/02/15 11:35:36;;;;;;;9.43;6.57;;;9.10;99.90;;;;;;4927607;29;20028;-69
2023/02/15 11:38:05;;;;;;;9.48;6.82;;;9.20;99.90;;;;;;4915814;29;20028;-70
2023/02/15 11:40:43;;;;;;;9.93;6.97;;;9.10;99.90;;;;;;4908154;29;20040;-71
2023/02/15 11:43:26;;;;;;;11.90;6.75;;;9.20;99.90;;;;;;4922239;29;20024;-70
2023/02/15 11:45:52;;;;;;;10.00;6.70;;;9.20;99.90;;;;;;4919933;29;20035;-69
2023/02/15 11:48:17;;;;;;;11.52;6.70;;;9.30;99.90;;;;;;4926931;29;20029;-73
2023/02/15 11:50:44;;;;;;;11.10;7.88;;;9.40;99.90;;;;;;4911479;29;20028;-71
2023/02/15 11:53:20;;;;;;;12.57;7.57;;;9.50;99.90;;;;;;4925618;29;20026;-71
2023/02/15 11:55:50;;;;;;;8.93;6.45;;;9.50;99.90;;;;;;4926725;29;21410;-72
2023/02/15 11:58:19;;;;;;;11.70;7.45;;;9.60;99.90;;;;;;4911609;29;20071;-70
2023/02/15 12:00:52;;;;;;;8.82;6.72;;;9.60;99.90;;;;;;4909792;29;20032;-71
2023/02/15 12:03:26;;;;;;;10.93;6.72;;;9.60;99.90;;;;;;4885838;29;20557;-71
2023/02/15 12:06:00;;;;;;;9.80;6.85;;;9.60;99.90;;;;;;4918596;29;20055;-69
2023/02/15 12:08:41;;;;;;;10.18;7.78;;;9.70;99.90;;;;;;4913582;29;20031;-70
2023/02/15 12:11:17;;;;;;;10.07;6.57;;;9.80;99.90;;;;;;4918730;29;20493;-73
2023/02/15 12:14:00;;;;;;;9.73;6.97;;;9.90;99.90;;;;;;4907667;29;20028;-69
2023/02/15 12:16:28;;;;;;;9.45;6.78;;;10.00;99.90;;;;;;4917223;29;20086;-67
2023/02/15 12:18:59;;;;;;;8.77;6.55;;;10.10;99.90;;;;;;4929113;29;20035;-68
2023/02/15 12:21:41;;;;;;;10.30;6.82;;;10.10;99.90;;;;;;4926556;29;20819;-66
2023/02/15 12:24:20;;;;;;;9.57;7.03;;;10.10;99.90;;;;;;4883661;29;20037;-68
2023/02/15 12:27:25;;;;;;;9.73;6.55;;;10.10;99.90;;;;;;4910717;29;20039;-69
2023/02/15 12:29:59;;;;;;;9.02;6.80;;;10.10;99.90;;;;;;4896235;29;20045;-68
2023/02/15 12:32:46;;;;;;;9.15;6.80;;;10.20;99.90;;;;;;4920614;29;20082;-68
2023/02/15 12:35:20;;;;;;;9.50;6.47;;;10.30;99.90;;;;;;4920786;29;20031;-68
2023/02/15 12:37:55;;;;;;;9.15;6.40;;;10.30;99.90;;;;;;4897726;29;20028;-69
2023/02/15 12:40:26;;;;;;;9.13;6.38;;;10.30;99.90;;;;;;4920301;29;20030;-68
2023/02/15 12:42:51;;;;;;;9.52;6.55;;;10.40;99.90;;;;;;4902619;29;20497;-67
2023/02/15 12:45:20;;;;;;;8.60;6.22;;;10.40;99.90;;;;;;4920724;29;20086;-84
2023/02/15 12:47:46;;;;;;;9.38;6.72;;;10.60;99.90;;;;;;4920505;29;20028;-81
2023/02/15 12:50:17;;;;;;;10.63;5.82;;;10.60;99.90;;;;;;4902378;29;20056;-79
2023/02/15 12:52:45;;;;;;;9.85;7.28;;;10.70;99.90;;;;;;4920696;29;20020;-79
2023/02/15 12:55:17;;;;;;;10.50;7.07;;;10.70;99.90;;;;;;4910093;29;20025;-68
2023/02/15 12:57:46;;;;;;;11.57;6.50;;;10.80;99.90;;;;;;4928199;29;20044;-68
2023/02/15 13:00:18;;;;;;;11.25;7.03;;;10.80;99.90;;;;;;4920633;29;20032;-68
2023/02/15 13:02:48;;;;;;;10.70;7.07;;;10.90;99.90;;;;;;4903296;29;20028;-69
2023/02/15 13:05:38;;;;;;;9.88;6.82;;;10.80;99.90;;;;;;4920381;29;20024;-69
2023/02/15 13:08:14;;;;;;;9.48;6.15;;;10.80;99.90;;;;;;4919996;29;20133;-68
2023/02/15 13:10:52;;;;;;;9.50;6.85;;;10.90;99.90;;;;;;4923785;29;20088;-69
2023/02/15 13:13:26;;;;;;;10.63;6.45;;;10.90;99.90;;;;;;4923766;29;20068;-69
2023/02/15 13:15:55;;;;;;;9.57;7.43;;;10.90;99.90;;;;;;4928667;29;20032;-68
2023/02/15 13:18:42;;;;;;;10.10;6.57;;;11.00;99.90;;;;;;4918884;29;20035;-69
2023/02/15 13:21:23;;;;;;;8.73;5.93;;;11.00;99.90;;;;;;4906044;29;20040;-70
2023/02/15 13:23:57;;;;;;;9.18;6.75;;;11.10;99.90;;;;;;4922038;29;20031;-71
2023/02/15 13:26:26;;;;;;;8.20;5.80;;;11.10;99.90;;;;;;4917370;29;20044;-71
2023/02/15 13:28:55;;;;;;;8.32;6.20;;;11.00;99.90;;;;;;4923104;29;20032;-71
2023/02/15 13:31:25;;;;;;;9.73;6.70;;;11.10;99.90;;;;;;4922928;29;20024;-72
2023/02/15 13:34:00;;;;;;;9.05;6.55;;;11.10;99.90;;;;;;4921851;29;20020;-71
2023/02/15 13:36:59;;;;;;;11.40;7.55;;;11.20;99.90;;;;;;4911811;29;20047;-72
2023/02/15 13:39:44;;;;;;;8.82;6.45;;;11.30;99.90;;;;;;4905578;29;20028;-72
2023/02/15 13:42:31;;;;;;;8.43;6.00;;;11.40;99.90;;;;;;4922950;29;20028;-71
2023/02/15 13:45:36;;;;;;;9.95;6.47;;;11.50;99.90;;;;;;4921382;29;20092;-71
2023/02/15 13:48:24;;;;;;;8.85;6.03;;;11.50;99.90;;;;;;4905593;29;20024;-71
2023/02/15 13:51:02;;;;;;;12.23;6.53;;;11.50;99.90;;;;;;4905785;29;20031;-72
2023/02/15 13:53:40;;;;;;;8.73;5.95;;;11.60;99.90;;;;;;4921551;29;20032;-73
2023/02/15 13:56:16;;;;;;;8.60;6.00;;;11.60;99.90;;;;;;4922498;29;20032;-73
2023/02/15 13:59:09;;;;;;;9.55;6.13;;;11.60;99.90;;;;;;4922488;29;20078;-73
2023/02/15 14:01:50;;;;;;;7.88;6.03;;;11.80;99.90;;;;;;4883236;29;20043;-73
2023/02/15 14:04:31;;;;;;;11.02;6.43;;;11.80;99.90;;;;;;4916116;29;20040;-73
2023/02/15 14:07:14;;;;;;;9.82;6.55;;;11.80;99.90;;;;;;4908828;29;20401;-74
2023/02/15 14:09:52;;;;;;;8.88;6.43;;;11.70;99.90;;;;;;4921801;29;20032;-75
2023/02/15 14:12:37;;;;;;;9.07;6.10;;;11.90;99.90;;;;;;4922568;29;20064;-76
2023/02/15 14:15:54;;;;;;;9.30;6.30;;;11.90;99.90;;;;;;4920709;29;20493;-77
2023/02/15 14:18:44;;;;;;;9.07;5.78;;;12.00;99.90;;;;;;4893041;29;20040;-76
2023/02/15 14:21:19;;;;;;;7.40;5.38;;;12.00;99.90;;;;;;4920949;29;20024;-78
2023/02/15 14:24:08;;;;;;;9.10;6.28;;;12.00;99.90;;;;;;4920804;29;20107;-75
2023/02/15 14:26:38;;;;;;;8.35;5.95;;;12.00;99.90;;;;;;4904869;29;20043;-76
2023/02/15 14:29:25;;;;;;;6.65;5.35;;;12.10;99.90;;;;;;4921789;29;20032;-76
2023/02/15 14:31:57;;;;;;;7.68;5.80;;;12.10;99.90;;;;;;4920308;29;20083;-78
2023/02/15 14:34:48;;;;;;;9.38;6.13;;;12.10;99.90;;;;;;4898863;29;20087;-74
2023/02/15 14:37:22;;;;;;;9.13;6.15;;;12.20;99.90;;;;;;4900231;29;20036;-76
2023/02/15 14:43:07;;;;;;;9.27;6.65;;;12.30;99.90;;;;;;4921278;29;20043;-75
2023/02/15 14:45:48;;;;;;;10.25;6.40;;;12.50;99.90;;;;;;4920144;29;20028;-76
2023/02/15 14:48:46;;;;;;;6.55;5.53;;;12.50;99.90;;;;;;4909507;29;20493;-76
2023/02/15 14:51:45;;;;;;;7.63;5.75;;;12.40;99.90;;;;;;4901027;29;20040;-75
2023/02/15 14:54:32;;;;;;;9.57;6.60;;;12.30;99.90;;;;;;4917017;29;20055;-76
2023/02/15 14:57:01;;;;;;;7.38;5.95;;;12.40;99.90;;;;;;4914528;29;20088;-78
2023/02/15 14:59:35;;;;;;;7.65;5.60;;;12.40;99.90;;;;;;4919161;29;20044;-76
2023/02/15 15:02:07;;;;;;;7.15;5.47;;;12.50;99.90;;;;;;4903019;29;20032;-75
2023/02/15 15:04:41;;;;;;;9.40;6.45;;;12.50;99.90;;;;;;4933204;29;20512;-76
2023/02/15 15:07:36;;;;;;;7.28;5.63;;;12.60;99.90;;;;;;4918969;29;20039;-73
2023/02/15 15:10:39;;;;;;;8.70;6.82;;;12.70;99.90;;;;;;4906660;29;20040;-73
2023/02/15 15:13:32;;;;;;;7.72;6.03;;;12.70;99.90;;;;;;4910961;29;20020;-82
2023/02/15 15:16:39;;;;;;;9.23;5.60;;;12.70;99.90;;;;;;4923569;29;20125;-79
2023/02/15 15:19:10;;;;;;;9.23;5.93;;;12.70;99.90;;;;;;4897410;29;20092;-79
2023/02/15 15:21:56;;;;;;;6.45;5.47;;;12.70;99.90;;;;;;4914869;29;20028;-76
2023/02/15 15:24:37;;;;;;;9.25;6.43;;;12.70;99.90;;;;;;4913921;29;20016;-76
2023/02/15 15:27:41;;;;;;;9.80;7.00;;;12.70;99.90;;;;;;4913404;29;20079;-73
2023/02/15 15:30:27;;;;;;;8.50;5.78;;;12.60;99.90;;;;;;4900921;29;20523;-73
2023/02/15 15:32:52;;;;;;;9.07;5.82;;;12.60;99.90;;;;;;4905236;29;20059;-76
2023/02/15 15:35:32;;;;;;;9.85;6.85;;;12.60;99.90;;;;;;4921239;29;20032;-74
2023/02/15 15:38:16;;;;;;;7.78;5.90;;;12.60;99.90;;;;;;4920947;29;20107;-76
2023/02/15 15:40:56;;;;;;;8.07;5.95;;;12.60;99.90;;;;;;4920688;29;20036;-75
2023/02/15 15:43:54;;;;;;;9.38;6.53;;;12.70;99.90;;;;;;4902834;29;20091;-82
2023/02/15 15:46:38;;;;;;;9.38;6.05;;;12.70;99.90;;;;;;4876334;29;20064;-77
2023/02/15 15:49:15;;;;;;;10.05;6.80;;;12.80;99.90;;;;;;4918842;29;20020;-78
2023/02/15 15:51:43;;;;;;;10.55;6.93;;;12.80;99.90;;;;;;4903455;29;20389;-81
2023/02/15 15:54:19;;;;;;;9.15;6.32;;;12.90;99.90;;;;;;4902690;29;20020;-77
2023/02/15 15:56:51;;;;;;;7.43;5.78;;;12.90;99.90;;;;;;4919843;29;20024;-76
2023/02/15 15:59:33;;;;;;;12.32;7.32;;;12.90;99.90;;;;;;4918502;29;20050;-78
2023/02/15 16:02:06;;;;;;;7.97;6.15;;;12.90;99.90;;;;;;4920528;29;20111;-77
2023/02/15 16:04:34;;;;;;;12.65;7.15;;;13.00;99.90;;;;;;4911052;29;20036;-73
2023/02/15 16:07:18;;;;;;;10.25;6.50;;;12.90;99.90;;;;;;4919854;29;20084;-77
2023/02/15 16:10:23;;;;;;;7.88;6.07;;;13.00;99.90;;;;;;4900990;29;20043;-72
2023/02/15 16:12:50;;;;;;;7.72;6.05;;;13.00;99.90;;;;;;4917884;29;20396;-76
2023/02/15 16:15:30;;;;;;;8.25;6.38;;;13.00;99.90;;;;;;4910696;29;20039;-73
2023/02/15 16:17:58;;;;;;;8.10;5.82;;;13.00;99.90;;;;;;4918324;29;20028;-74
2023/02/15 16:20:30;;;;;;;10.77;6.43;;;13.00;99.90;;;;;;4912274;29;20144;-79
2023/02/15 16:23:23;;;;;;;8.02;5.97;;;13.00;99.90;;;;;;4919397;29;20032;-79
2023/02/15 16:26:18;;;;;;;10.63;6.78;;;13.00;99.90;;;;;;4914501;29;20093;-74
2023/02/15 16:28:54;;;;;;;9.68;6.38;;;13.00;99.90;;;;;;4898413;29;20040;-77
2023/02/15 16:31:24;;;;;;;7.82;5.97;;;13.00;99.90;;;;;;4920374;29;20400;-84
2023/02/15 16:33:54;;;;;;;10.25;6.65;;;13.00;99.90;;;;;;4902239;29;20036;-75
2023/02/15 16:36:26;;;;;;;13.00;7.38;;;13.10;99.90;;;;;;4918659;29;20107;-78
2023/02/15 16:38:51;;;;;;;8.65;6.22;;;13.10;99.90;;;;;;4917714;29;20036;-78
2023/02/15 16:41:30;;;;;;;7.68;6.45;;;13.10;99.90;;;;;;4918514;29;20043;-76
2023/02/15 16:44:12;;;;;;;9.70;7.22;;;13.10;99.90;;;;;;4921199;29;20060;-82
2023/02/15 16:46:42;;;;;;;7.88;5.95;;;13.10;99.90;;;;;;4894498;29;20040;-74
2023/02/15 16:49:25;;;;;;;11.18;6.75;;;13.00;99.90;;;;;;4922127;29;20031;-70
2023/02/15 16:52:01;;;;;;;9.65;6.25;;;13.00;99.90;;;;;;4923187;29;20469;-71
2023/02/15 16:54:29;;;;;;;9.57;7.03;;;13.00;99.90;;;;;;4915771;29;20560;-72
2023/02/15 16:56:55;;;;;;;7.95;6.35;;;12.80;99.90;;;;;;4907124;29;20040;-71
2023/02/15 16:59:27;;;;;;;9.85;7.13;;;12.80;99.90;;;;;;4927920;29;20047;-72
2023/02/15 17:01:53;;;;;;;8.52;6.68;;;12.70;99.90;;;;;;4915140;29;20028;-72
2023/02/15 17:04:21;;;;;;;8.73;6.30;;;12.60;99.90;;;;;;4904800;29;20449;-72
2023/02/15 17:07:18;;;;;;;9.15;6.53;;;12.60;99.90;;;;;;4922698;29;20067;-71
2023/02/15 17:09:52;;;;;;;9.30;6.32;;;12.50;99.90;;;;;;4923460;29;20488;-72
2023/02/15 17:12:44;;;;;;;9.00;6.88;;;12.30;99.90;;;;;;4920361;29;20024;-75
2023/02/15 17:15:32;;;;;;;8.35;6.22;;;12.30;99.90;;;;;;4926466;29;20489;-72
2023/02/15 17:18:18;;;;;;;10.18;6.25;;;12.10;99.90;;;;;;4932910;29;20028;-73
2023/02/15 17:20:45;;;;;;;9.70;6.95;;;12.10;99.90;;;;;;4929052;29;20032;-75
2023/02/15 17:23:22;;;;;;;11.30;7.43;;;12.00;99.90;;;;;;4932476;29;20070;-74
2023/02/15 17:25:48;;;;;;;8.73;7.07;;;12.00;99.90;;;;;;4916386;29;20094;-73
2023/02/15 17:28:24;;;;;;;10.30;6.75;;;11.90;99.90;;;;;;4913554;29;20032;-75
2023/02/15 17:30:52;;;;;;;10.05;7.45;;;11.90;99.90;;;;;;4928647;29;20032;-75
2023/02/15 17:33:35;;;;;;;12.50;7.53;;;11.80;99.90;;;;;;4928609;29;20051;-78
2023/02/15 17:36:22;;;;;;;12.48;7.93;;;11.80;99.90;;;;;;4913166;29;20020;-77
2023/02/15 17:38:56;;;;;;;9.38;6.47;;;11.70;99.90;;;;;;4928561;29;20165;-77
2023/02/15 17:41:26;;;;;;;10.75;7.43;;;11.70;99.90;;;;;;4927859;29;20458;-78
2023/02/15 17:43:51;;;;;;;11.38;7.88;;;11.70;99.90;;;;;;4930927;29;20032;-76
2023/02/15 17:46:23;;;;;;;9.18;6.78;;;11.70;99.90;;;;;;4916741;29;20034;-77
2023/02/15 17:48:54;;;;;;;9.23;7.05;;;11.60;99.90;;;;;;4923838;29;20043;-76
2023/02/15 17:51:21;;;;;;;11.20;7.68;;;11.60;99.90;;;;;;4932259;29;20019;-78
2023/02/15 17:56:37;;;;;;;9.98;7.20;;;11.50;99.90;;;;;;4925915;29;20043;-76
2023/02/15 17:59:06;;;;;;;11.18;7.57;;;11.40;99.90;;;;;;4930712;29;20417;-76
2023/02/15 18:13:03;;;;;;;10.70;6.88;;;11.30;99.90;;;;;;4932916;29;20092;-79
2023/02/15 18:15:32;;;;;;;9.95;7.03;;;11.30;99.90;;;;;;4907711;29;20485;-79
2023/02/15 18:17:57;;;;;;;10.73;7.60;;;11.30;99.90;;;;;;4905163;29;20032;-79
2023/02/15 18:20:33;;;;;;;10.95;7.53;;;11.30;99.90;;;;;;4902180;29;20036;-78
2023/02/15 18:23:00;;;;;;;12.20;7.88;;;11.30;99.90;;;;;;4922061;29;20024;-79
2023/02/15 18:25:26;;;;;;;11.18;8.02;;;11.30;99.90;;;;;;4918713;29;20028;-77
2023/02/15 18:27:57;;;;;;;12.23;8.63;;;11.20;99.90;;;;;;4920266;29;21657;-80
2023/02/15 18:34:28;;;;;;;10.10;7.50;;;11.10;99.90;;;;;;4917233;29;20028;-82
2023/02/15 18:36:55;;;;;;;10.75;7.90;;;11.10;99.90;;;;;;4897256;29;20116;-79
2023/02/15 18:39:42;;;;;;;10.35;7.53;;;11.00;99.90;;;;;;4904442;29;20028;-79
2023/02/15 18:42:30;;;;;;;12.32;7.63;;;11.10;99.90;;;;;;4905039;29;20036;-78
2023/02/15 18:44:58;;;;;;;14.48;8.15;;;11.10;99.90;;;;;;4921832;29;20024;-78
2023/02/15 18:47:29;;;;;;;11.18;6.90;;;11.10;99.90;;;;;;4920485;29;20032;-80
2023/02/15 18:49:55;;;;;;;12.50;7.38;;;11.10;99.90;;;;;;4904574;29;20020;-80
2023/02/15 18:52:24;;;;;;;11.00;7.63;;;11.10;99.90;;;;;;4921656;29;20103;-79
2023/02/15 18:55:14;;;;;;;10.77;6.97;;;11.10;99.90;;;;;;4920285;29;20072;-79
2023/02/15 18:57:43;;;;;;;9.63;6.50;;;11.10;99.90;;;;;;4907273;29;20048;-80
2023/02/15 19:00:16;;;;;;;10.23;6.88;;;11.10;99.90;;;;;;4905451;29;20028;-78
2023/02/15 19:03:15;;;;;;;9.35;6.45;;;11.10;99.90;;;;;;4918814;29;20047;-81
2023/02/15 19:05:47;;;;;;;9.85;6.38;;;11.10;99.90;;;;;;4920108;29;20028;-79
2023/02/15 19:08:23;;;;;;;10.35;6.82;;;11.10;99.90;;;;;;4906112;29;20131;-78
2023/02/15 19:10:50;;;;;;;10.07;7.18;;;11.10;99.90;;;;;;4920526;29;20027;-76
2023/02/15 19:13:16;;;;;;;11.43;7.47;;;11.10;99.90;;;;;;4904180;29;20024;-77
2023/02/15 19:15:43;;;;;;;12.77;7.55;;;11.00;99.90;;;;;;4920421;29;20028;-75
2023/02/15 19:18:14;;;;;;;10.60;7.68;;;11.00;99.90;;;;;;4904166;29;20133;-83
2023/02/15 19:20:45;;;;;;;11.10;7.78;;;11.00;99.90;;;;;;4903847;29;20398;-80
2023/02/15 19:23:21;;;;;;;10.65;7.28;;;11.00;99.90;;;;;;4921208;29;20111;-79
2023/02/15 19:25:48;;;;;;;10.30;6.72;;;11.00;99.90;;;;;;4904044;29;20558;-78
2023/02/15 19:28:22;;;;;;;10.50;6.93;;;11.00;99.90;;;;;;4921126;29;20065;-80
2023/02/15 19:30:47;;;;;;;11.30;6.88;;;11.00;99.90;;;;;;4917950;29;20024;-79
2023/02/15 19:33:18;;;;;;;11.05;7.00;;;11.00;99.90;;;;;;4929474;29;20374;-79
2023/02/15 19:35:50;;;;;;;9.43;6.03;;;11.10;99.90;;;;;;4919976;29;20025;-80
2023/02/15 19:38:24;;;;;;;8.55;5.88;;;11.00;99.90;;;;;;4908694;29;20122;-79
2023/02/15 19:40:50;;;;;;;8.40;5.70;;;11.00;99.90;;;;;;4903292;29;20063;-78
2023/02/15 19:43:19;;;;;;;9.30;6.30;;;11.00;99.90;;;;;;4903709;29;20050;-78
2023/02/15 19:45:45;;;;;;;8.38;6.15;;;11.00;99.90;;;;;;4920326;29;20058;-80
2023/02/15 19:48:14;;;;;;;9.48;6.60;;;11.00;99.90;;;;;;4919452;29;20103;-80
2023/02/15 19:50:42;;;;;;;9.07;5.72;;;11.00;99.90;;;;;;4903076;29;20028;-80
2023/02/15 19:53:19;;;;;;;10.80;6.25;;;11.10;99.90;;;;;;4921017;29;20032;-78
2023/02/15 19:55:45;;;;;;;8.10;5.28;;;11.10;99.90;;;;;;4903617;29;20024;-78
2023/02/15 19:58:12;;;;;;;7.57;5.63;;;11.10;99.90;;;;;;4903646;29;20063;-78
2023/02/15 20:00:38;;;;;;;11.77;6.03;;;11.10;99.90;;;;;;4903709;29;20508;-78